sensor_id;sensor_type;location;lat;lon;timestamp;P1;durP1;ratioP1;P2;durP2;ratioP2
45354;SDS011;31091;48.758;9.150;2023-02-13T00:00:34;15.35;;;8.20;;
45354;SDS011;31091;48.758;9.150;2023-02-13T00:03:00;15.57;;;6.95;;
45354;SDS011;31091;48.758;9.150;2023-02-13T00:05:25;12.93;;;6.80;;
45354;SDS011;31091;48.758;9.150;2023-02-13T00:07:50;13.82;;;7.68;;
45354;SDS011;31091;48.758;9.150;2023-02-13T00:10:15;13.07;;;7.53;;
45354;SDS011;31091;48.758;9.150;2023-02-13T00:12:41;15.00;;;7.40;;
45354;SDS011;31091;48.758;9.150;2023-02-13T00:15:06;14.57;;;7.85;;
45354;SDS011;31091;48.758;9.150;2023-02-13T00:17:31;14.07;;;7.70;;
45354;SDS011;31091;48.758;9.150;2023-02-13T00:19:57;15.20;;;8.52;;
45354;SDS011;31091;48.758;9.150;2023-02-13T00:22:22;17.05;;;7.72;;
45354;SDS011;31091;48.758;9.150;2023-02-13T00:24:48;14.02;;;7.63;;
45354;SDS011;31091;48.758;9.150;2023-02-13T00:27:13;15.00;;;8.77;;
45354;SDS011;31091;48.758;9.150;2023-02-13T00:29:38;15.40;;;8.00;;
45354;SDS011;31091;48.758;9.150;2023-02-13T00:32:04;18.45;;;8.63;;
45354;SDS011;31091;48.758;9.150;2023-02-13T00:34:29;15.35;;;8.95;;
45354;SDS011;31091;48.758;9.150;2023-02-13T00:36:54;14.40;;;7.15;;
45354;SDS011;31091;48.758;9.150;2023-02-13T00:39:19;13.40;;;7.50;;
45354;SDS011;31091;48.758;9.150;2023-02-13T00:41:45;15.53;;;7.93;;
45354;SDS011;31091;48.758;9.150;2023-02-13T00:44:10;16.20;;;8.70;;
45354;SDS011;31091;48.758;9.150;2023-02-13T00:46:35;14.13;;;7.68;;
45354;SDS011;31091;48.758;9.150;2023-02-13T00:49:02;16.73;;;9.43;;
45354;SDS011;31091;48.758;9.150;2023-02-13T00:51:27;17.65;;;9.68;;
45354;SDS011;31091;48.758;9.150;2023-02-13T00:53:53;18.10;;;8.23;;
45354;SDS011;31091;48.758;9.150;2023-02-13T00:56:18;12.77;;;7.50;;
45354;SDS011;31091;48.758;9.150;2023-02-13T00:58:43;19.35;;;8.73;;
45354;SDS011;31091;48.758;9.150;2023-02-13T01:01:08;19.30;;;9.25;;
45354;SDS011;31091;48.758;9.150;2023-02-13T01:03:33;15.77;;;8.30;;
45354;SDS011;31091;48.758;9.150;2023-02-13T01:05:59;14.57;;;8.77;;
45354;SDS011;31091;48.758;9.150;2023-02-13T01:08:24;16.30;;;9.03;;
45354;SDS011;31091;48.758;9.150;2023-02-13T01:10:52;20.27;;;10.43;;
45354;SDS011;31091;48.758;9.150;2023-02-13T01:13:17;17.42;;;9.50;;
45354;SDS011;31091;48.758;9.150;2023-02-13T01:15:42;16.60;;;8.77;;
45354;SDS011;31091;48.758;9.150;2023-02-13T01:18:08;17.25;;;9.00;;
45354;SDS011;31091;48.758;9.150;2023-02-13T01:20:33;16.10;;;8.95;;
45354;SDS011;31091;48.758;9.150;2023-02-13T01:22:59;16.75;;;9.18;;
45354;SDS011;31091;48.758;9.150;2023-02-13T01:25:24;16.03;;;8.77;;
45354;SDS011;31091;48.758;9.150;2023-02-13T01:27:49;16.75;;;9.18;;
45354;SDS011;31091;48.758;9.150;2023-02-13T01:30:15;20.67;;;9.57;;
45354;SDS011;31091;48.758;9.150;2023-02-13T01:32:41;17.38;;;9.45;;
45354;SDS011;31091;48.758;9.150;2023-02-13T01:35:07;19.42;;;10.10;;
45354;SDS011;31091;48.758;9.150;2023-02-13T01:37:32;15.43;;;8.95;;
45354;SDS011;31091;48.758;9.150;2023-02-13T01:39:58;17.92;;;8.55;;
45354;SDS011;31091;48.758;9.150;2023-02-13T01:42:24;16.85;;;8.32;;
45354;SDS011;31091;48.758;9.150;2023-02-13T01:44:53;18.02;;;9.52;;
45354;SDS011;31091;48.758;9.150;2023-02-13T01:47:23;20.63;;;9.23;;
45354;SDS011;31091;48.758;9.150;2023-02-13T01:49:51;20.77;;;10.80;;
45354;SDS011;31091;48.758;9.150;2023-02-13T01:52:19;17.40;;;10.27;;
45354;SDS011;31091;48.758;9.150;2023-02-13T01:54:45;19.38;;;9.82;;
45354;SDS011;31091;48.758;9.150;2023-02-13T01:57:15;20.65;;;10.18;;
45354;SDS011;31091;48.758;9.150;2023-02-13T01:59:43;20.55;;;9.57;;
45354;SDS011;31091;48.758;9.150;2023-02-13T02:02:11;18.05;;;8.93;;
45354;SDS011;31091;48.758;9.150;2023-02-13T02:04:37;19.35;;;9.52;;
45354;SDS011;31091;48.758;9.150;2023-02-13T02:07:05;21.27;;;10.30;;
45354;SDS011;31091;48.758;9.150;2023-02-13T02:09:33;20.58;;;10.18;;
45354;SDS011;31091;48.758;9.150;2023-02-13T02:12:06;18.85;;;9.70;;
45354;SDS011;31091;48.758;9.150;2023-02-13T02:14:33;19.30;;;10.27;;
45354;SDS011;31091;48.758;9.150;2023-02-13T02:16:58;17.20;;;9.50;;
45354;SDS011;31091;48.758;9.150;2023-02-13T02:19:28;23.02;;;10.77;;
45354;SDS011;31091;48.758;9.150;2023-02-13T02:24:41;18.77;;;10.25;;
45354;SDS011;31091;48.758;9.150;2023-02-13T02:32:21;23.17;;;11.23;;
45354;SDS011;31091;48.758;9.150;2023-02-13T02:37:36;17.23;;;9.73;;
45354;SDS011;31091;48.758;9.150;2023-02-13T02:40:40;18.30;;;9.75;;
45354;SDS011;31091;48.758;9.150;2023-02-13T02:43:05;20.00;;;11.13;;
45354;SDS011;31091;48.758;9.150;2023-02-13T02:48:47;18.63;;;10.07;;
45354;SDS011;31091;48.758;9.150;2023-02-13T02:53:41;20.80;;;10.47;;
45354;SDS011;31091;48.758;9.150;2023-02-13T02:58:50;19.38;;;9.88;;
45354;SDS011;31091;48.758;9.150;2023-02-13T03:01:34;18.95;;;9.98;;
45354;SDS011;31091;48.758;9.150;2023-02-13T03:07:06;24.20;;;11.93;;
45354;SDS011;31091;48.758;9.150;2023-02-13T03:09:34;19.73;;;9.65;;
45354;SDS011;31091;48.758;9.150;2023-02-13T03:12:20;22.13;;;11.02;;
45354;SDS011;31091;48.758;9.150;2023-02-13T03:15:05;18.85;;;9.95;;
45354;SDS011;31091;48.758;9.150;2023-02-13T03:17:30;23.00;;;10.95;;
45354;SDS011;31091;48.758;9.150;2023-02-13T03:23:53;23.50;;;10.88;;
45354;SDS011;31091;48.758;9.150;2023-02-13T03:26:13;23.23;;;11.02;;
45354;SDS011;31091;48.758;9.150;2023-02-13T03:28:51;20.30;;;10.75;;
45354;SDS011;31091;48.758;9.150;2023-02-13T03:31:46;21.73;;;10.10;;
45354;SDS011;31091;48.758;9.150;2023-02-13T03:34:14;21.88;;;11.43;;
45354;SDS011;31091;48.758;9.150;2023-02-13T03:42:12;20.30;;;10.90;;
45354;SDS011;31091;48.758;9.150;2023-02-13T03:47:05;16.80;;;9.70;;
45354;SDS011;31091;48.758;9.150;2023-02-13T03:49:33;22.58;;;11.48;;
45354;SDS011;31091;48.758;9.150;2023-02-13T03:52:38;21.20;;;11.45;;
45354;SDS011;31091;48.758;9.150;2023-02-13T03:57:53;21.10;;;12.00;;
45354;SDS011;31091;48.758;9.150;2023-02-13T04:00:39;20.60;;;10.55;;
45354;SDS011;31091;48.758;9.150;2023-02-13T04:05:35;25.65;;;10.77;;
45354;SDS011;31091;48.758;9.150;2023-02-13T04:08:03;23.02;;;11.45;;
45354;SDS011;31091;48.758;9.150;2023-02-13T04:10:28;22.67;;;11.25;;
45354;SDS011;31091;48.758;9.150;2023-02-13T04:13:02;23.55;;;11.40;;
45354;SDS011;31091;48.758;9.150;2023-02-13T04:15:35;24.85;;;12.45;;
45354;SDS011;31091;48.758;9.150;2023-02-13T04:20:31;20.50;;;10.93;;
45354;SDS011;31091;48.758;9.150;2023-02-13T04:22:56;24.92;;;12.55;;
45354;SDS011;31091;48.758;9.150;2023-02-13T04:25:27;23.92;;;11.55;;
45354;SDS011;31091;48.758;9.150;2023-02-13T04:27:53;20.02;;;10.27;;
45354;SDS011;31091;48.758;9.150;2023-02-13T04:30:18;22.17;;;11.47;;
45354;SDS011;31091;48.758;9.150;2023-02-13T04:32:43;24.08;;;12.00;;
45354;SDS011;31091;48.758;9.150;2023-02-13T04:35:08;24.00;;;12.80;;
45354;SDS011;31091;48.758;9.150;2023-02-13T04:37:35;22.30;;;11.80;;
45354;SDS011;31091;48.758;9.150;2023-02-13T04:40:00;22.80;;;12.10;;
45354;SDS011;31091;48.758;9.150;2023-02-13T04:42:25;24.00;;;11.30;;
45354;SDS011;31091;48.758;9.150;2023-02-13T04:44:51;24.63;;;12.82;;
45354;SDS011;31091;48.758;9.150;2023-02-13T04:47:16;21.60;;;11.80;;
45354;SDS011;31091;48.758;9.150;2023-02-13T04:49:41;21.27;;;11.50;;
45354;SDS011;31091;48.758;9.150;2023-02-13T04:52:06;24.97;;;11.50;;
45354;SDS011;31091;48.758;9.150;2023-02-13T04:54:31;21.03;;;11.47;;
45354;SDS011;31091;48.758;9.150;2023-02-13T04:56:57;22.47;;;12.07;;
45354;SDS011;31091;48.758;9.150;2023-02-13T04:59:22;23.17;;;10.80;;
45354;SDS011;31091;48.758;9.150;2023-02-13T05:01:47;24.83;;;13.43;;
45354;SDS011;31091;48.758;9.150;2023-02-13T05:04:12;21.90;;;12.23;;
45354;SDS011;31091;48.758;9.150;2023-02-13T05:06:40;27.23;;;13.27;;
45354;SDS011;31091;48.758;9.150;2023-02-13T05:09:05;27.45;;;14.00;;
45354;SDS011;31091;48.758;9.150;2023-02-13T05:11:32;22.73;;;11.50;;
45354;SDS011;31091;48.758;9.150;2023-02-13T05:13:57;24.00;;;12.70;;
45354;SDS011;31091;48.758;9.150;2023-02-13T05:16:22;21.58;;;11.43;;
45354;SDS011;31091;48.758;9.150;2023-02-13T05:18:47;26.13;;;12.70;;
45354;SDS011;31091;48.758;9.150;2023-02-13T05:21:13;23.00;;;11.90;;
45354;SDS011;31091;48.758;9.150;2023-02-13T05:24:07;21.95;;;11.45;;
45354;SDS011;31091;48.758;9.150;2023-02-13T05:26:32;22.33;;;11.95;;
45354;SDS011;31091;48.758;9.150;2023-02-13T05:28:58;26.80;;;13.13;;
45354;SDS011;31091;48.758;9.150;2023-02-13T05:31:42;24.52;;;12.60;;
45354;SDS011;31091;48.758;9.150;2023-02-13T05:34:07;21.23;;;11.33;;
45354;SDS011;31091;48.758;9.150;2023-02-13T05:36:32;24.73;;;12.37;;
45354;SDS011;31091;48.758;9.150;2023-02-13T05:38:57;25.03;;;11.97;;
45354;SDS011;31091;48.758;9.150;2023-02-13T05:41:22;22.42;;;13.02;;
45354;SDS011;31091;48.758;9.150;2023-02-13T05:43:48;24.70;;;12.30;;
45354;SDS011;31091;48.758;9.150;2023-02-13T05:46:13;21.77;;;12.67;;
45354;SDS011;31091;48.758;9.150;2023-02-13T05:48:38;25.92;;;11.90;;
45354;SDS011;31091;48.758;9.150;2023-02-13T05:51:04;24.80;;;12.27;;
45354;SDS011;31091;48.758;9.150;2023-02-13T05:53:30;21.88;;;12.20;;
45354;SDS011;31091;48.758;9.150;2023-02-13T05:55:59;24.40;;;12.35;;
45354;SDS011;31091;48.758;9.150;2023-02-13T05:58:24;21.15;;;11.65;;
45354;SDS011;31091;48.758;9.150;2023-02-13T06:00:49;23.00;;;12.02;;
45354;SDS011;31091;48.758;9.150;2023-02-13T06:03:14;24.27;;;11.98;;
45354;SDS011;31091;48.758;9.150;2023-02-13T06:05:40;22.13;;;12.05;;
45354;SDS011;31091;48.758;9.150;2023-02-13T06:08:05;23.25;;;12.38;;
45354;SDS011;31091;48.758;9.150;2023-02-13T06:10:33;23.88;;;13.60;;
45354;SDS011;31091;48.758;9.150;2023-02-13T06:12:58;26.43;;;12.50;;
45354;SDS011;31091;48.758;9.150;2023-02-13T06:15:23;24.07;;;11.97;;
45354;SDS011;31091;48.758;9.150;2023-02-13T06:17:49;26.13;;;12.52;;
45354;SDS011;31091;48.758;9.150;2023-02-13T06:20:14;23.63;;;11.95;;
45354;SDS011;31091;48.758;9.150;2023-02-13T06:22:39;28.45;;;13.95;;
45354;SDS011;31091;48.758;9.150;2023-02-13T06:25:04;26.97;;;13.67;;
45354;SDS011;31091;48.758;9.150;2023-02-13T06:27:30;28.63;;;13.88;;
45354;SDS011;31091;48.758;9.150;2023-02-13T06:29:55;25.55;;;13.13;;
45354;SDS011;31091;48.758;9.150;2023-02-13T06:32:20;26.92;;;13.63;;
45354;SDS011;31091;48.758;9.150;2023-02-13T06:34:45;26.47;;;14.30;;
45354;SDS011;31091;48.758;9.150;2023-02-13T06:37:11;28.85;;;14.52;;
45354;SDS011;31091;48.758;9.150;2023-02-13T06:39:36;30.70;;;13.90;;
45354;SDS011;31091;48.758;9.150;2023-02-13T06:42:01;31.92;;;14.45;;
45354;SDS011;31091;48.758;9.150;2023-02-13T06:44:26;26.03;;;13.47;;
45354;SDS011;31091;48.758;9.150;2023-02-13T06:46:52;23.27;;;11.90;;
45354;SDS011;31091;48.758;9.150;2023-02-13T06:49:17;29.42;;;13.68;;
45354;SDS011;31091;48.758;9.150;2023-02-13T06:51:42;25.73;;;14.40;;
45354;SDS011;31091;48.758;9.150;2023-02-13T06:54:07;27.35;;;13.68;;
45354;SDS011;31091;48.758;9.150;2023-02-13T06:56:32;34.10;;;14.57;;
45354;SDS011;31091;48.758;9.150;2023-02-13T06:58:58;33.47;;;14.43;;
45354;SDS011;31091;48.758;9.150;2023-02-13T07:01:23;31.10;;;13.27;;
45354;SDS011;31091;48.758;9.150;2023-02-13T07:03:48;34.53;;;16.23;;
45354;SDS011;31091;48.758;9.150;2023-02-13T07:06:19;25.52;;;12.98;;
45354;SDS011;31091;48.758;9.150;2023-02-13T07:08:44;27.67;;;13.50;;
45354;SDS011;31091;48.758;9.150;2023-02-13T07:11:19;28.45;;;14.02;;
45354;SDS011;31091;48.758;9.150;2023-02-13T07:13:45;35.47;;;14.38;;
45354;SDS011;31091;48.758;9.150;2023-02-13T07:16:10;34.97;;;16.50;;
45354;SDS011;31091;48.758;9.150;2023-02-13T07:18:35;29.38;;;15.40;;
45354;SDS011;31091;48.758;9.150;2023-02-13T07:21:00;30.42;;;13.55;;
45354;SDS011;31091;48.758;9.150;2023-02-13T07:23:26;27.97;;;13.83;;
45354;SDS011;31091;48.758;9.150;2023-02-13T07:25:51;34.75;;;14.73;;
45354;SDS011;31091;48.758;9.150;2023-02-13T07:28:16;27.20;;;13.07;;
45354;SDS011;31091;48.758;9.150;2023-02-13T07:30:41;39.97;;;15.70;;
45354;SDS011;31091;48.758;9.150;2023-02-13T07:33:08;29.08;;;14.40;;
45354;SDS011;31091;48.758;9.150;2023-02-13T07:35:33;31.63;;;15.40;;
45354;SDS011;31091;48.758;9.150;2023-02-13T07:38:01;32.55;;;14.93;;
45354;SDS011;31091;48.758;9.150;2023-02-13T07:40:37;24.52;;;13.85;;
45354;SDS011;31091;48.758;9.150;2023-02-13T07:43:02;31.05;;;14.85;;
45354;SDS011;31091;48.758;9.150;2023-02-13T07:45:28;29.38;;;14.70;;
45354;SDS011;31091;48.758;9.150;2023-02-13T07:47:56;35.33;;;15.27;;
45354;SDS011;31091;48.758;9.150;2023-02-13T07:50:21;26.52;;;13.60;;
45354;SDS011;31091;48.758;9.150;2023-02-13T07:52:53;29.95;;;15.45;;
45354;SDS011;31091;48.758;9.150;2023-02-13T07:55:19;31.83;;;15.38;;
45354;SDS011;31091;48.758;9.150;2023-02-13T07:57:44;30.47;;;15.43;;
45354;SDS011;31091;48.758;9.150;2023-02-13T08:00:09;35.10;;;15.40;;
45354;SDS011;31091;48.758;9.150;2023-02-13T08:02:35;41.67;;;15.75;;
45354;SDS011;31091;48.758;9.150;2023-02-13T08:05:00;30.15;;;14.77;;
45354;SDS011;31091;48.758;9.150;2023-02-13T08:07:25;31.65;;;16.15;;
45354;SDS011;31091;48.758;9.150;2023-02-13T08:09:50;31.33;;;15.77;;
45354;SDS011;31091;48.758;9.150;2023-02-13T08:12:35;34.40;;;15.82;;
45354;SDS011;31091;48.758;9.150;2023-02-13T08:15:01;36.15;;;17.52;;
45354;SDS011;31091;48.758;9.150;2023-02-13T08:17:26;27.73;;;16.08;;
45354;SDS011;31091;48.758;9.150;2023-02-13T08:19:51;33.20;;;16.42;;
45354;SDS011;31091;48.758;9.150;2023-02-13T08:22:16;31.33;;;16.63;;
45354;SDS011;31091;48.758;9.150;2023-02-13T08:24:42;36.22;;;17.17;;
45354;SDS011;31091;48.758;9.150;2023-02-13T08:27:10;32.42;;;16.60;;
45354;SDS011;31091;48.758;9.150;2023-02-13T08:29:35;38.00;;;15.20;;
45354;SDS011;31091;48.758;9.150;2023-02-13T08:32:00;41.00;;;17.67;;
45354;SDS011;31091;48.758;9.150;2023-02-13T08:34:25;43.67;;;20.77;;
45354;SDS011;31091;48.758;9.150;2023-02-13T08:36:51;35.20;;;15.40;;
45354;SDS011;31091;48.758;9.150;2023-02-13T08:39:16;29.33;;;15.52;;
45354;SDS011;31091;48.758;9.150;2023-02-13T08:41:41;26.98;;;15.63;;
45354;SDS011;31091;48.758;9.150;2023-02-13T08:44:08;28.63;;;13.93;;
45354;SDS011;31091;48.758;9.150;2023-02-13T08:46:33;30.15;;;14.85;;
45354;SDS011;31091;48.758;9.150;2023-02-13T08:48:58;27.67;;;13.37;;
45354;SDS011;31091;48.758;9.150;2023-02-13T08:51:24;27.70;;;13.87;;
45354;SDS011;31091;48.758;9.150;2023-02-13T08:53:49;26.20;;;13.75;;
45354;SDS011;31091;48.758;9.150;2023-02-13T08:56:14;22.67;;;13.35;;
45354;SDS011;31091;48.758;9.150;2023-02-13T08:58:40;24.27;;;13.40;;
45354;SDS011;31091;48.758;9.150;2023-02-13T09:01:05;30.40;;;15.15;;
45354;SDS011;31091;48.758;9.150;2023-02-13T09:03:31;21.45;;;12.05;;
45354;SDS011;31091;48.758;9.150;2023-02-13T09:06:00;27.85;;;12.27;;
45354;SDS011;31091;48.758;9.150;2023-02-13T09:08:25;24.77;;;14.18;;
45354;SDS011;31091;48.758;9.150;2023-02-13T09:10:54;22.15;;;12.63;;
45354;SDS011;31091;48.758;9.150;2023-02-13T09:13:20;20.20;;;12.47;;
45354;SDS011;31091;48.758;9.150;2023-02-13T09:15:45;21.55;;;11.95;;
45354;SDS011;31091;48.758;9.150;2023-02-13T09:18:10;22.23;;;11.30;;
45354;SDS011;31091;48.758;9.150;2023-02-13T09:20:35;23.70;;;13.77;;
45354;SDS011;31091;48.758;9.150;2023-02-13T09:23:01;21.83;;;12.10;;
45354;SDS011;31091;48.758;9.150;2023-02-13T09:25:26;20.33;;;11.87;;
45354;SDS011;31091;48.758;9.150;2023-02-13T09:27:51;19.02;;;10.95;;
45354;SDS011;31091;48.758;9.150;2023-02-13T09:30:16;19.95;;;12.43;;
45354;SDS011;31091;48.758;9.150;2023-02-13T09:32:47;19.80;;;11.52;;
45354;SDS011;31091;48.758;9.150;2023-02-13T09:35:13;18.73;;;10.57;;
45354;SDS011;31091;48.758;9.150;2023-02-13T09:37:39;18.23;;;11.10;;
45354;SDS011;31091;48.758;9.150;2023-02-13T09:40:05;17.77;;;11.23;;
45354;SDS011;31091;48.758;9.150;2023-02-13T09:42:31;14.20;;;9.45;;
45354;SDS011;31091;48.758;9.150;2023-02-13T09:44:58;16.65;;;9.90;;
45354;SDS011;31091;48.758;9.150;2023-02-13T09:52:24;14.65;;;8.95;;
45354;SDS011;31091;48.758;9.150;2023-02-13T09:54:53;18.48;;;10.95;;
45354;SDS011;31091;48.758;9.150;2023-02-13T09:57:28;15.05;;;9.23;;
45354;SDS011;31091;48.758;9.150;2023-02-13T10:00:14;17.92;;;9.82;;
45354;SDS011;31091;48.758;9.150;2023-02-13T10:10:42;14.32;;;8.52;;
45354;SDS011;31091;48.758;9.150;2023-02-13T10:18:49;15.13;;;8.68;;
45354;SDS011;31091;48.758;9.150;2023-02-13T10:21:18;15.50;;;9.63;;
45354;SDS011;31091;48.758;9.150;2023-02-13T10:23:49;13.02;;;7.72;;
45354;SDS011;31091;48.758;9.150;2023-02-13T10:26:17;13.23;;;8.95;;
45354;SDS011;31091;48.758;9.150;2023-02-13T10:28:45;15.85;;;8.40;;
45354;SDS011;31091;48.758;9.150;2023-02-13T10:31:32;13.48;;;8.20;;
45354;SDS011;31091;48.758;9.150;2023-02-13T10:33:58;13.88;;;7.95;;
45354;SDS011;31091;48.758;9.150;2023-02-13T10:36:25;13.25;;;8.48;;
45354;SDS011;31091;48.758;9.150;2023-02-13T10:38:55;12.40;;;8.27;;
45354;SDS011;31091;48.758;9.150;2023-02-13T10:43:59;14.13;;;8.88;;
45354;SDS011;31091;48.758;9.150;2023-02-13T10:51:44;11.75;;;7.45;;
45354;SDS011;31091;48.758;9.150;2023-02-13T10:59:17;10.60;;;7.50;;
45354;SDS011;31091;48.758;9.150;2023-02-13T11:04:14;15.48;;;8.80;;
45354;SDS011;31091;48.758;9.150;2023-02-13T11:06:42;13.85;;;8.13;;
45354;SDS011;31091;48.758;9.150;2023-02-13T11:09:07;12.35;;;7.85;;
45354;SDS011;31091;48.758;9.150;2023-02-13T11:11:34;14.18;;;7.85;;
45354;SDS011;31091;48.758;9.150;2023-02-13T11:14:10;12.82;;;8.35;;
45354;SDS011;31091;48.758;9.150;2023-02-13T11:19:13;13.75;;;8.80;;
45354;SDS011;31091;48.758;9.150;2023-02-13T11:21:41;13.73;;;8.52;;
45354;SDS011;31091;48.758;9.150;2023-02-13T11:24:14;12.75;;;7.95;;
45354;SDS011;31091;48.758;9.150;2023-02-13T11:26:40;15.55;;;8.75;;
45354;SDS011;31091;48.758;9.150;2023-02-13T11:29:21;12.38;;;8.65;;
45354;SDS011;31091;48.758;9.150;2023-02-13T11:31:59;11.23;;;7.63;;
45354;SDS011;31091;48.758;9.150;2023-02-13T11:34:25;12.15;;;7.93;;
45354;SDS011;31091;48.758;9.150;2023-02-13T11:36:52;12.68;;;7.32;;
45354;SDS011;31091;48.758;9.150;2023-02-13T11:39:19;22.58;;;8.43;;
45354;SDS011;31091;48.758;9.150;2023-02-13T11:41:45;14.93;;;7.97;;
45354;SDS011;31091;48.758;9.150;2023-02-13T11:44:24;15.60;;;7.28;;
45354;SDS011;31091;48.758;9.150;2023-02-13T11:46:51;13.35;;;6.32;;
45354;SDS011;31091;48.758;9.150;2023-02-13T11:49:18;10.45;;;6.63;;
45354;SDS011;31091;48.758;9.150;2023-02-13T11:51:44;13.68;;;6.70;;
45354;SDS011;31091;48.758;9.150;2023-02-13T11:54:44;13.52;;;7.45;;
45354;SDS011;31091;48.758;9.150;2023-02-13T11:57:24;9.88;;;6.60;;
45354;SDS011;31091;48.758;9.150;2023-02-13T11:59:47;11.98;;;6.72;;
45354;SDS011;31091;48.758;9.150;2023-02-13T12:02:18;9.55;;;6.32;;
45354;SDS011;31091;48.758;9.150;2023-02-13T12:04:43;12.13;;;6.75;;
45354;SDS011;31091;48.758;9.150;2023-02-13T12:07:12;14.35;;;6.63;;
45354;SDS011;31091;48.758;9.150;2023-02-13T12:09:39;11.35;;;6.05;;
45354;SDS011;31091;48.758;9.150;2023-02-13T12:12:04;9.77;;;6.15;;
45354;SDS011;31091;48.758;9.150;2023-02-13T12:14:32;9.65;;;6.50;;
45354;SDS011;31091;48.758;9.150;2023-02-13T12:19:32;10.52;;;5.90;;
45354;SDS011;31091;48.758;9.150;2023-02-13T12:24:54;10.35;;;6.53;;
45354;SDS011;31091;48.758;9.150;2023-02-13T12:35:13;10.98;;;7.05;;
45354;SDS011;31091;48.758;9.150;2023-02-13T12:37:56;10.48;;;7.63;;
45354;SDS011;31091;48.758;9.150;2023-02-13T12:40:38;10.40;;;6.50;;
45354;SDS011;31091;48.758;9.150;2023-02-13T12:43:22;9.23;;;6.00;;
45354;SDS011;31091;48.758;9.150;2023-02-13T12:45:52;8.90;;;6.80;;
45354;SDS011;31091;48.758;9.150;2023-02-13T12:53:38;12.60;;;7.57;;
45354;SDS011;31091;48.758;9.150;2023-02-13T13:01:24;10.70;;;7.72;;
45354;SDS011;31091;48.758;9.150;2023-02-13T13:03:56;11.98;;;7.97;;
45354;SDS011;31091;48.758;9.150;2023-02-13T13:14:02;13.43;;;8.82;;
45354;SDS011;31091;48.758;9.150;2023-02-13T13:24:15;12.43;;;8.30;;
45354;SDS011;31091;48.758;9.150;2023-02-13T13:26:45;11.45;;;8.02;;
45354;SDS011;31091;48.758;9.150;2023-02-13T13:29:18;11.40;;;7.63;;
45354;SDS011;31091;48.758;9.150;2023-02-13T13:31:55;11.13;;;7.60;;
45354;SDS011;31091;48.758;9.150;2023-02-13T13:34:22;11.50;;;8.50;;
45354;SDS011;31091;48.758;9.150;2023-02-13T13:47:38;14.48;;;9.20;;
45354;SDS011;31091;48.758;9.150;2023-02-13T13:50:04;13.85;;;8.90;;
45354;SDS011;31091;48.758;9.150;2023-02-13T13:52:36;14.43;;;8.65;;
45354;SDS011;31091;48.758;9.150;2023-02-13T13:55:03;14.07;;;8.27;;
45354;SDS011;31091;48.758;9.150;2023-02-13T14:02:41;12.75;;;8.20;;
45354;SDS011;31091;48.758;9.150;2023-02-13T14:05:28;13.60;;;7.60;;
45354;SDS011;31091;48.758;9.150;2023-02-13T14:07:55;13.88;;;8.82;;
45354;SDS011;31091;48.758;9.150;2023-02-13T14:12:46;13.83;;;9.00;;
45354;SDS011;31091;48.758;9.150;2023-02-13T14:17:56;13.45;;;8.43;;
45354;SDS011;31091;48.758;9.150;2023-02-13T14:20:36;13.18;;;8.70;;
45354;SDS011;31091;48.758;9.150;2023-02-13T14:23:45;13.27;;;8.35;;
45354;SDS011;31091;48.758;9.150;2023-02-13T14:28:35;14.30;;;9.50;;
45354;SDS011;31091;48.758;9.150;2023-02-13T14:31:04;13.63;;;9.20;;
45354;SDS011;31091;48.758;9.150;2023-02-13T14:33:30;12.43;;;8.90;;
45354;SDS011;31091;48.758;9.150;2023-02-13T14:36:03;14.32;;;8.60;;
45354;SDS011;31091;48.758;9.150;2023-02-13T14:38:30;15.60;;;9.23;;
45354;SDS011;31091;48.758;9.150;2023-02-13T14:40:55;13.77;;;9.68;;
45354;SDS011;31091;48.758;9.150;2023-02-13T14:43:31;13.18;;;8.77;;
45354;SDS011;31091;48.758;9.150;2023-02-13T14:46:03;14.63;;;9.40;;
45354;SDS011;31091;48.758;9.150;2023-02-13T14:48:34;14.18;;;8.57;;
45354;SDS011;31091;48.758;9.150;2023-02-13T14:51:01;13.25;;;8.45;;
45354;SDS011;31091;48.758;9.150;2023-02-13T14:53:29;13.30;;;8.77;;
45354;SDS011;31091;48.758;9.150;2023-02-13T14:55:56;14.95;;;8.68;;
45354;SDS011;31091;48.758;9.150;2023-02-13T14:58:24;14.27;;;8.27;;
45354;SDS011;31091;48.758;9.150;2023-02-13T15:01:01;14.90;;;9.20;;
45354;SDS011;31091;48.758;9.150;2023-02-13T15:03:34;15.10;;;8.30;;
45354;SDS011;31091;48.758;9.150;2023-02-13T15:06:02;12.57;;;7.95;;
45354;SDS011;31091;48.758;9.150;2023-02-13T15:08:33;13.85;;;8.18;;
45354;SDS011;31091;48.758;9.150;2023-02-13T15:10:59;12.35;;;7.88;;
45354;SDS011;31091;48.758;9.150;2023-02-13T15:13:31;11.90;;;7.40;;
45354;SDS011;31091;48.758;9.150;2023-02-13T15:16:01;13.35;;;8.00;;
45354;SDS011;31091;48.758;9.150;2023-02-13T15:18:32;12.73;;;7.70;;
45354;SDS011;31091;48.758;9.150;2023-02-13T15:20:59;14.52;;;8.48;;
45354;SDS011;31091;48.758;9.150;2023-02-13T15:23:29;15.63;;;8.68;;
45354;SDS011;31091;48.758;9.150;2023-02-13T15:25:56;14.05;;;8.15;;
45354;SDS011;31091;48.758;9.150;2023-02-13T15:28:22;13.20;;;8.68;;
45354;SDS011;31091;48.758;9.150;2023-02-13T15:31:04;19.23;;;9.82;;
45354;SDS011;31091;48.758;9.150;2023-02-13T15:33:43;13.07;;;8.55;;
45354;SDS011;31091;48.758;9.150;2023-02-13T15:36:16;14.02;;;8.05;;
45354;SDS011;31091;48.758;9.150;2023-02-13T15:38:41;13.75;;;8.63;;
45354;SDS011;31091;48.758;9.150;2023-02-13T15:41:11;20.05;;;8.55;;
45354;SDS011;31091;48.758;9.150;2023-02-13T15:43:47;12.98;;;8.43;;
45354;SDS011;31091;48.758;9.150;2023-02-13T15:48:44;13.30;;;7.95;;
45354;SDS011;31091;48.758;9.150;2023-02-13T15:51:17;12.95;;;7.80;;
45354;SDS011;31091;48.758;9.150;2023-02-13T15:54:21;14.30;;;7.93;;
45354;SDS011;31091;48.758;9.150;2023-02-13T15:56:34;11.93;;;7.78;;
45354;SDS011;31091;48.758;9.150;2023-02-13T15:59:00;13.75;;;8.07;;
45354;SDS011;31091;48.758;9.150;2023-02-13T16:01:27;11.50;;;7.10;;
45354;SDS011;31091;48.758;9.150;2023-02-13T16:03:54;14.45;;;8.02;;
45354;SDS011;31091;48.758;9.150;2023-02-13T16:06:20;11.55;;;6.90;;
45354;SDS011;31091;48.758;9.150;2023-02-13T16:08:51;14.23;;;7.38;;
45354;SDS011;31091;48.758;9.150;2023-02-13T16:16:22;16.47;;;8.53;;
45354;SDS011;31091;48.758;9.150;2023-02-13T16:18:48;16.73;;;8.68;;
45354;SDS011;31091;48.758;9.150;2023-02-13T16:21:13;15.20;;;8.50;;
45354;SDS011;31091;48.758;9.150;2023-02-13T16:23:39;14.07;;;8.10;;
45354;SDS011;31091;48.758;9.150;2023-02-13T16:26:05;14.43;;;7.88;;
45354;SDS011;31091;48.758;9.150;2023-02-13T16:28:31;12.18;;;7.32;;
45354;SDS011;31091;48.758;9.150;2023-02-13T16:30:58;13.65;;;7.90;;
45354;SDS011;31091;48.758;9.150;2023-02-13T16:38:48;15.20;;;8.23;;
45354;SDS011;31091;48.758;9.150;2023-02-13T16:43:50;17.25;;;8.50;;
45354;SDS011;31091;48.758;9.150;2023-02-13T16:52:06;10.63;;;6.93;;
45354;SDS011;31091;48.758;9.150;2023-02-13T16:56:43;13.93;;;7.43;;
45354;SDS011;31091;48.758;9.150;2023-02-13T16:59:19;12.35;;;7.30;;
45354;SDS011;31091;48.758;9.150;2023-02-13T17:01:44;13.73;;;8.60;;
45354;SDS011;31091;48.758;9.150;2023-02-13T17:04:18;13.30;;;8.18;;
45354;SDS011;31091;48.758;9.150;2023-02-13T17:06:43;14.15;;;7.00;;
45354;SDS011;31091;48.758;9.150;2023-02-13T17:09:09;19.40;;;8.40;;
45354;SDS011;31091;48.758;9.150;2023-02-13T17:11:34;13.07;;;7.30;;
45354;SDS011;31091;48.758;9.150;2023-02-13T17:13:59;12.20;;;7.70;;
45354;SDS011;31091;48.758;9.150;2023-02-13T17:16:25;13.45;;;7.35;;
45354;SDS011;31091;48.758;9.150;2023-02-13T17:18:50;24.47;;;7.70;;